sensor_id;sensor_type;location;lat;lon;timestamp;P1;durP1;ratioP1;P2;durP2;ratioP2
43216;SDS011;71549;42.686;23.300;2023-11-21T00:01:44;8.75;;;7.78;;
43216;SDS011;71549;42.686;23.300;2023-11-21T00:03:45;9.52;;;8.20;;
43216;SDS011;71549;42.686;23.300;2023-11-21T00:05:45;9.38;;;8.05;;
43216;SDS011;71549;42.686;23.300;2023-11-21T00:07:46;11.77;;;8.73;;
43216;SDS011;71549;42.686;23.300;2023-11-21T00:09:46;8.85;;;7.95;;
43216;SDS011;71549;42.686;23.300;2023-11-21T00:11:47;10.25;;;8.57;;
43216;SDS011;71549;42.686;23.300;2023-11-21T00:13:47;10.40;;;8.60;;
43216;SDS011;71549;42.686;23.300;2023-11-21T00:15:49;9.40;;;8.38;;
43216;SDS011;71549;42.686;23.300;2023-11-21T00:17:49;9.60;;;8.52;;
43216;SDS011;71549;42.686;23.300;2023-11-21T00:19:51;9.95;;;8.30;;
43216;SDS011;71549;42.686;23.300;2023-11-21T00:21:54;8.93;;;8.02;;
43216;SDS011;71549;42.686;23.300;2023-11-21T00:23:54;9.80;;;8.85;;
43216;SDS011;71549;42.686;23.300;2023-11-21T00:25:55;10.13;;;8.75;;
43216;SDS011;71549;42.686;23.300;2023-11-21T00:27:55;9.55;;;8.63;;
43216;SDS011;71549;42.686;23.300;2023-11-21T00:29:55;9.75;;;8.68;;
43216;SDS011;71549;42.686;23.300;2023-11-21T00:31:56;10.07;;;8.52;;
43216;SDS011;71549;42.686;23.300;2023-11-21T00:33:56;10.45;;;8.48;;
43216;SDS011;71549;42.686;23.300;2023-11-21T00:35:57;11.50;;;9.40;;
43216;SDS011;71549;42.686;23.300;2023-11-21T00:37:57;10.40;;;9.40;;
43216;SDS011;71549;42.686;23.300;2023-11-21T00:39:58;9.95;;;8.35;;
43216;SDS011;71549;42.686;23.300;2023-11-21T00:41:58;9.80;;;8.73;;
43216;SDS011;71549;42.686;23.300;2023-11-21T00:43:59;9.05;;;8.15;;
43216;SDS011;71549;42.686;23.300;2023-11-21T00:46:03;9.73;;;8.73;;
43216;SDS011;71549;42.686;23.300;2023-11-21T00:48:05;8.98;;;8.07;;
43216;SDS011;71549;42.686;23.300;2023-11-21T00:50:05;10.13;;;8.70;;
43216;SDS011;71549;42.686;23.300;2023-11-21T00:52:07;10.13;;;8.82;;
43216;SDS011;71549;42.686;23.300;2023-11-21T00:54:07;10.40;;;9.30;;
43216;SDS011;71549;42.686;23.300;2023-11-21T00:56:08;10.18;;;9.18;;
43216;SDS011;71549;42.686;23.300;2023-11-21T00:58:09;11.55;;;9.18;;
43216;SDS011;71549;42.686;23.300;2023-11-21T01:00:10;11.55;;;9.80;;
43216;SDS011;71549;42.686;23.300;2023-11-21T01:02:16;11.00;;;9.02;;
43216;SDS011;71549;42.686;23.300;2023-11-21T01:04:16;10.40;;;9.27;;
43216;SDS011;71549;42.686;23.300;2023-11-21T01:06:17;11.00;;;9.68;;
43216;SDS011;71549;42.686;23.300;2023-11-21T01:08:17;11.60;;;9.18;;
43216;SDS011;71549;42.686;23.300;2023-11-21T01:10:18;11.85;;;9.85;;
43216;SDS011;71549;42.686;23.300;2023-11-21T01:12:19;10.15;;;8.80;;
43216;SDS011;71549;42.686;23.300;2023-11-21T01:14:20;11.10;;;9.90;;
43216;SDS011;71549;42.686;23.300;2023-11-21T01:16:21;10.20;;;9.07;;
43216;SDS011;71549;42.686;23.300;2023-11-21T01:18:22;11.63;;;9.80;;
43216;SDS011;71549;42.686;23.300;2023-11-21T01:20:25;11.43;;;9.52;;
43216;SDS011;71549;42.686;23.300;2023-11-21T01:22:26;11.45;;;9.93;;
43216;SDS011;71549;42.686;23.300;2023-11-21T01:24:26;10.35;;;9.25;;
43216;SDS011;71549;42.686;23.300;2023-11-21T01:26:27;10.80;;;9.75;;
43216;SDS011;71549;42.686;23.300;2023-11-21T01:28:27;11.07;;;9.25;;
43216;SDS011;71549;42.686;23.300;2023-11-21T01:30:28;10.70;;;9.60;;
43216;SDS011;71549;42.686;23.300;2023-11-21T01:32:28;11.43;;;10.05;;
43216;SDS011;71549;42.686;23.300;2023-11-21T01:34:29;11.50;;;9.70;;
43216;SDS011;71549;42.686;23.300;2023-11-21T01:36:31;12.13;;;9.98;;
43216;SDS011;71549;42.686;23.300;2023-11-21T01:38:36;10.32;;;9.15;;
43216;SDS011;71549;42.686;23.300;2023-11-21T01:40:36;10.85;;;9.70;;
43216;SDS011;71549;42.686;23.300;2023-11-21T01:42:37;10.20;;;9.20;;
43216;SDS011;71549;42.686;23.300;2023-11-21T01:44:37;11.85;;;10.73;;
43216;SDS011;71549;42.686;23.300;2023-11-21T01:46:38;11.38;;;10.15;;
43216;SDS011;71549;42.686;23.300;2023-11-21T01:48:40;11.55;;;10.35;;
43216;SDS011;71549;42.686;23.300;2023-11-21T01:50:40;11.82;;;10.60;;
43216;SDS011;71549;42.686;23.300;2023-11-21T01:52:41;11.75;;;9.90;;
43216;SDS011;71549;42.686;23.300;2023-11-21T01:54:46;11.45;;;9.93;;
43216;SDS011;71549;42.686;23.300;2023-11-21T01:56:47;11.45;;;10.00;;
43216;SDS011;71549;42.686;23.300;2023-11-21T01:58:48;11.52;;;10.18;;
43216;SDS011;71549;42.686;23.300;2023-11-21T02:00:48;11.32;;;10.02;;
43216;SDS011;71549;42.686;23.300;2023-11-21T02:02:51;12.85;;;10.35;;
43216;SDS011;71549;42.686;23.300;2023-11-21T02:04:51;11.65;;;10.45;;
43216;SDS011;71549;42.686;23.300;2023-11-21T02:06:52;12.68;;;10.15;;
43216;SDS011;71549;42.686;23.300;2023-11-21T02:08:52;11.32;;;10.18;;
43216;SDS011;71549;42.686;23.300;2023-11-21T02:10:53;12.88;;;11.00;;
43216;SDS011;71549;42.686;23.300;2023-11-21T02:12:53;12.57;;;10.57;;
43216;SDS011;71549;42.686;23.300;2023-11-21T02:14:54;12.98;;;10.63;;
43216;SDS011;71549;42.686;23.300;2023-11-21T02:16:55;12.13;;;9.65;;
43216;SDS011;71549;42.686;23.300;2023-11-21T02:18:57;12.32;;;11.02;;
43216;SDS011;71549;42.686;23.300;2023-11-21T02:20:58;11.85;;;10.65;;
43216;SDS011;71549;42.686;23.300;2023-11-21T02:22:59;11.63;;;10.45;;
43216;SDS011;71549;42.686;23.300;2023-11-21T02:24:59;11.32;;;9.73;;
43216;SDS011;71549;42.686;23.300;2023-11-21T02:26:59;12.05;;;10.77;;
43216;SDS011;71549;42.686;23.300;2023-11-21T02:29:01;12.23;;;10.98;;
43216;SDS011;71549;42.686;23.300;2023-11-21T02:31:04;12.25;;;10.77;;
43216;SDS011;71549;42.686;23.300;2023-11-21T02:33:05;11.70;;;9.98;;
43216;SDS011;71549;42.686;23.300;2023-11-21T02:35:08;12.65;;;10.63;;
43216;SDS011;71549;42.686;23.300;2023-11-21T02:37:09;11.93;;;10.68;;
43216;SDS011;71549;42.686;23.300;2023-11-21T02:39:10;12.23;;;10.90;;
43216;SDS011;71549;42.686;23.300;2023-11-21T02:41:11;13.25;;;10.75;;
43216;SDS011;71549;42.686;23.300;2023-11-21T02:43:11;12.02;;;10.70;;
43216;SDS011;71549;42.686;23.300;2023-11-21T02:45:13;12.65;;;11.35;;
43216;SDS011;71549;42.686;23.300;2023-11-21T02:47:17;12.55;;;11.25;;
43216;SDS011;71549;42.686;23.300;2023-11-21T02:49:19;13.18;;;11.10;;
43216;SDS011;71549;42.686;23.300;2023-11-21T02:51:19;12.35;;;11.05;;
43216;SDS011;71549;42.686;23.300;2023-11-21T02:53:21;11.85;;;10.65;;
43216;SDS011;71549;42.686;23.300;2023-11-21T02:55:21;12.07;;;10.88;;
43216;SDS011;71549;42.686;23.300;2023-11-21T02:57:24;12.30;;;10.70;;
43216;SDS011;71549;42.686;23.300;2023-11-21T02:59:25;12.32;;;11.07;;
43216;SDS011;71549;42.686;23.300;2023-11-21T03:01:25;12.20;;;10.95;;
43216;SDS011;71549;42.686;23.300;2023-11-21T03:03:27;12.82;;;11.52;;
43216;SDS011;71549;42.686;23.300;2023-11-21T03:05:28;11.88;;;10.73;;
43216;SDS011;71549;42.686;23.300;2023-11-21T03:07:30;12.65;;;11.35;;
43216;SDS011;71549;42.686;23.300;2023-11-21T03:09:30;12.90;;;11.20;;
43216;SDS011;71549;42.686;23.300;2023-11-21T03:11:30;12.52;;;11.23;;
43216;SDS011;71549;42.686;23.300;2023-11-21T03:13:32;11.73;;;10.60;;
43216;SDS011;71549;42.686;23.300;2023-11-21T03:15:33;12.90;;;10.82;;
43216;SDS011;71549;42.686;23.300;2023-11-21T03:17:35;13.27;;;11.87;;
43216;SDS011;71549;42.686;23.300;2023-11-21T03:19:36;11.82;;;10.70;;
43216;SDS011;71549;42.686;23.300;2023-11-21T03:21:36;12.65;;;11.35;;
43216;SDS011;71549;42.686;23.300;2023-11-21T03:23:37;13.20;;;11.65;;
43216;SDS011;71549;42.686;23.300;2023-11-21T03:25:38;12.95;;;11.65;;
43216;SDS011;71549;42.686;23.300;2023-11-21T03:27:39;12.13;;;10.88;;
43216;SDS011;71549;42.686;23.300;2023-11-21T03:29:40;12.05;;;10.90;;
43216;SDS011;71549;42.686;23.300;2023-11-21T03:31:40;12.70;;;11.35;;
43216;SDS011;71549;42.686;23.300;2023-11-21T03:33:41;12.23;;;11.00;;
43216;SDS011;71549;42.686;23.300;2023-11-21T03:35:41;13.25;;;11.93;;
43216;SDS011;71549;42.686;23.300;2023-11-21T03:37:43;12.68;;;11.38;;
43216;SDS011;71549;42.686;23.300;2023-11-21T03:39:43;12.93;;;11.63;;
43216;SDS011;71549;42.686;23.300;2023-11-21T03:41:44;12.80;;;11.40;;
43216;SDS011;71549;42.686;23.300;2023-11-21T03:43:45;13.40;;;11.75;;
43216;SDS011;71549;42.686;23.300;2023-11-21T03:45:45;11.70;;;10.50;;
43216;SDS011;71549;42.686;23.300;2023-11-21T03:47:46;12.15;;;10.85;;
43216;SDS011;71549;42.686;23.300;2023-11-21T03:49:47;13.27;;;11.88;;
43216;SDS011;71549;42.686;23.300;2023-11-21T03:51:47;12.32;;;11.02;;
43216;SDS011;71549;42.686;23.300;2023-11-21T03:53:48;13.73;;;12.05;;
43216;SDS011;71549;42.686;23.300;2023-11-21T03:55:48;13.00;;;11.70;;
43216;SDS011;71549;42.686;23.300;2023-11-21T03:57:50;13.75;;;11.88;;
43216;SDS011;71549;42.686;23.300;2023-11-21T03:59:51;12.27;;;11.02;;
43216;SDS011;71549;42.686;23.300;2023-11-21T04:01:51;13.43;;;12.00;;
43216;SDS011;71549;42.686;23.300;2023-11-21T04:03:52;13.60;;;12.00;;
43216;SDS011;71549;42.686;23.300;2023-11-21T04:05:52;13.57;;;12.18;;
43216;SDS011;71549;42.686;23.300;2023-11-21T04:07:53;13.80;;;12.40;;
43216;SDS011;71549;42.686;23.300;2023-11-21T04:09:53;13.55;;;12.18;;
43216;SDS011;71549;42.686;23.300;2023-11-21T04:11:54;12.73;;;11.43;;
43216;SDS011;71549;42.686;23.300;2023-11-21T04:13:55;13.07;;;11.77;;
43216;SDS011;71549;42.686;23.300;2023-11-21T04:15:56;13.63;;;12.30;;
43216;SDS011;71549;42.686;23.300;2023-11-21T04:17:56;13.82;;;11.88;;
43216;SDS011;71549;42.686;23.300;2023-11-21T04:19:58;13.48;;;12.02;;
43216;SDS011;71549;42.686;23.300;2023-11-21T04:21:58;12.55;;;11.27;;
43216;SDS011;71549;42.686;23.300;2023-11-21T04:23:58;13.18;;;11.27;;
43216;SDS011;71549;42.686;23.300;2023-11-21T04:25:59;12.75;;;11.45;;
43216;SDS011;71549;42.686;23.300;2023-11-21T04:28:00;13.55;;;12.15;;
43216;SDS011;71549;42.686;23.300;2023-11-21T04:30:00;13.45;;;12.05;;
43216;SDS011;71549;42.686;23.300;2023-11-21T04:32:01;13.50;;;12.10;;
43216;SDS011;71549;42.686;23.300;2023-11-21T04:34:02;13.05;;;11.70;;
43216;SDS011;71549;42.686;23.300;2023-11-21T04:36:04;13.48;;;11.65;;
43216;SDS011;71549;42.686;23.300;2023-11-21T04:38:05;14.07;;;12.68;;
43216;SDS011;71549;42.686;23.300;2023-11-21T04:40:05;12.82;;;11.50;;
43216;SDS011;71549;42.686;23.300;2023-11-21T04:42:06;13.90;;;12.50;;
43216;SDS011;71549;42.686;23.300;2023-11-21T04:44:07;13.80;;;12.40;;
43216;SDS011;71549;42.686;23.300;2023-11-21T04:46:07;12.27;;;10.98;;
43216;SDS011;71549;42.686;23.300;2023-11-21T04:48:08;13.68;;;12.27;;
43216;SDS011;71549;42.686;23.300;2023-11-21T04:50:08;12.77;;;11.48;;
43216;SDS011;71549;42.686;23.300;2023-11-21T04:52:09;14.05;;;12.57;;
43216;SDS011;71549;42.686;23.300;2023-11-21T04:54:09;14.32;;;12.73;;
43216;SDS011;71549;42.686;23.300;2023-11-21T04:56:10;12.88;;;11.57;;
43216;SDS011;71549;42.686;23.300;2023-11-21T04:58:10;13.60;;;12.13;;
43216;SDS011;71549;42.686;23.300;2023-11-21T05:00:12;13.25;;;11.90;;
43216;SDS011;71549;42.686;23.300;2023-11-21T05:02:12;12.63;;;11.32;;
43216;SDS011;71549;42.686;23.300;2023-11-21T05:04:13;13.63;;;12.23;;
43216;SDS011;71549;42.686;23.300;2023-11-21T05:06:14;13.82;;;12.23;;
43216;SDS011;71549;42.686;23.300;2023-11-21T05:08:15;14.18;;;12.77;;
43216;SDS011;71549;42.686;23.300;2023-11-21T05:10:15;13.57;;;12.18;;
43216;SDS011;71549;42.686;23.300;2023-11-21T05:12:17;15.63;;;12.65;;
43216;SDS011;71549;42.686;23.300;2023-11-21T05:14:17;12.38;;;11.07;;
43216;SDS011;71549;42.686;23.300;2023-11-21T05:16:25;13.57;;;12.27;;
43216;SDS011;71549;42.686;23.300;2023-11-21T05:18:27;13.50;;;12.10;;
43216;SDS011;71549;42.686;23.300;2023-11-21T05:20:29;13.10;;;11.75;;
43216;SDS011;71549;42.686;23.300;2023-11-21T05:22:30;12.82;;;11.60;;
43216;SDS011;71549;42.686;23.300;2023-11-21T05:24:30;13.65;;;11.93;;
43216;SDS011;71549;42.686;23.300;2023-11-21T05:26:31;13.00;;;11.60;;
43216;SDS011;71549;42.686;23.300;2023-11-21T05:28:31;12.82;;;11.57;;
43216;SDS011;71549;42.686;23.300;2023-11-21T05:30:32;13.30;;;11.80;;
43216;SDS011;71549;42.686;23.300;2023-11-21T05:32:32;12.75;;;11.45;;
43216;SDS011;71549;42.686;23.300;2023-11-21T05:34:34;13.18;;;11.77;;
43216;SDS011;71549;42.686;23.300;2023-11-21T05:36:34;13.13;;;11.75;;
43216;SDS011;71549;42.686;23.300;2023-11-21T05:38:35;14.23;;;12.25;;
43216;SDS011;71549;42.686;23.300;2023-11-21T05:40:36;14.15;;;12.10;;
43216;SDS011;71549;42.686;23.300;2023-11-21T05:42:37;13.57;;;12.27;;
43216;SDS011;71549;42.686;23.300;2023-11-21T05:44:41;13.18;;;11.73;;
43216;SDS011;71549;42.686;23.300;2023-11-21T05:46:43;13.23;;;11.83;;
43216;SDS011;71549;42.686;23.300;2023-11-21T05:48:43;13.10;;;11.70;;
43216;SDS011;71549;42.686;23.300;2023-11-21T05:50:44;13.85;;;12.30;;
43216;SDS011;71549;42.686;23.300;2023-11-21T05:52:45;13.05;;;11.80;;
43216;SDS011;71549;42.686;23.300;2023-11-21T05:54:47;13.50;;;12.07;;
43216;SDS011;71549;42.686;23.300;2023-11-21T05:56:47;13.20;;;11.82;;
43216;SDS011;71549;42.686;23.300;2023-11-21T05:58:48;12.77;;;11.48;;
43216;SDS011;71549;42.686;23.300;2023-11-21T06:00:48;12.98;;;11.30;;
43216;SDS011;71549;42.686;23.300;2023-11-21T06:02:49;12.82;;;11.05;;
43216;SDS011;71549;42.686;23.300;2023-11-21T06:04:55;13.05;;;11.68;;
43216;SDS011;71549;42.686;23.300;2023-11-21T06:06:56;12.05;;;10.82;;
43216;SDS011;71549;42.686;23.300;2023-11-21T06:08:56;13.05;;;11.57;;
43216;SDS011;71549;42.686;23.300;2023-11-21T06:10:58;12.80;;;11.43;;
43216;SDS011;71549;42.686;23.300;2023-11-21T06:12:58;12.25;;;11.07;;
43216;SDS011;71549;42.686;23.300;2023-11-21T06:14:59;12.27;;;11.15;;
43216;SDS011;71549;42.686;23.300;2023-11-21T06:16:59;13.48;;;11.23;;
43216;SDS011;71549;42.686;23.300;2023-11-21T06:19:00;13.23;;;11.82;;
43216;SDS011;71549;42.686;23.300;2023-11-21T06:21:01;12.38;;;10.95;;
43216;SDS011;71549;42.686;23.300;2023-11-21T06:23:02;13.63;;;11.30;;
43216;SDS011;71549;42.686;23.300;2023-11-21T06:25:04;13.40;;;11.93;;
43216;SDS011;71549;42.686;23.300;2023-11-21T06:27:05;12.40;;;10.75;;
43216;SDS011;71549;42.686;23.300;2023-11-21T06:29:06;13.27;;;11.88;;
43216;SDS011;71549;42.686;23.300;2023-11-21T06:31:07;12.98;;;11.73;;
43216;SDS011;71549;42.686;23.300;2023-11-21T06:33:07;13.75;;;11.93;;
43216;SDS011;71549;42.686;23.300;2023-11-21T06:35:08;13.23;;;11.93;;
43216;SDS011;71549;42.686;23.300;2023-11-21T06:37:09;12.98;;;11.63;;
43216;SDS011;71549;42.686;23.300;2023-11-21T06:39:11;13.10;;;11.68;;
43216;SDS011;71549;42.686;23.300;2023-11-21T06:41:11;13.02;;;11.70;;
43216;SDS011;71549;42.686;23.300;2023-11-21T06:43:15;13.85;;;12.25;;
43216;SDS011;71549;42.686;23.300;2023-11-21T06:45:16;12.32;;;11.13;;
43216;SDS011;71549;42.686;23.300;2023-11-21T06:47:17;12.65;;;11.35;;
43216;SDS011;71549;42.686;23.300;2023-11-21T06:49:20;13.13;;;11.73;;
43216;SDS011;71549;42.686;23.300;2023-11-21T06:51:20;13.23;;;11.82;;
43216;SDS011;71549;42.686;23.300;2023-11-21T06:53:21;13.20;;;11.90;;
43216;SDS011;71549;42.686;23.300;2023-11-21T06:55:22;12.43;;;11.20;;
43216;SDS011;71549;42.686;23.300;2023-11-21T06:57:23;13.73;;;12.32;;
43216;SDS011;71549;42.686;23.300;2023-11-21T06:59:24;13.13;;;11.82;;
43216;SDS011;71549;42.686;23.300;2023-11-21T07:01:24;14.20;;;12.23;;
43216;SDS011;71549;42.686;23.300;2023-11-21T07:03:25;12.70;;;11.23;;
43216;SDS011;71549;42.686;23.300;2023-11-21T07:05:29;13.35;;;12.05;;
43216;SDS011;71549;42.686;23.300;2023-11-21T07:07:30;12.55;;;11.35;;
43216;SDS011;71549;42.686;23.300;2023-11-21T07:09:31;13.70;;;11.95;;
43216;SDS011;71549;42.686;23.300;2023-11-21T07:11:33;13.30;;;11.93;;
43216;SDS011;71549;42.686;23.300;2023-11-21T07:13:38;12.98;;;11.50;;
43216;SDS011;71549;42.686;23.300;2023-11-21T07:17:41;12.73;;;11.53;;
43216;SDS011;71549;42.686;23.300;2023-11-21T07:19:41;12.82;;;11.52;;
43216;SDS011;71549;42.686;23.300;2023-11-21T07:21:42;13.68;;;12.13;;
43216;SDS011;71549;42.686;23.300;2023-11-21T07:23:42;15.07;;;12.73;;
43216;SDS011;71549;42.686;23.300;2023-11-21T07:25:46;13.07;;;11.77;;
43216;SDS011;71549;42.686;23.300;2023-11-21T07:27:53;18.67;;;11.32;;
43216;SDS011;71549;42.686;23.300;2023-11-21T07:29:55;13.43;;;11.73;;
43216;SDS011;71549;42.686;23.300;2023-11-21T07:31:55;14.25;;;12.18;;
43216;SDS011;71549;42.686;23.300;2023-11-21T07:34:02;14.20;;;11.07;;
43216;SDS011;71549;42.686;23.300;2023-11-21T07:36:06;15.70;;;11.98;;
43216;SDS011;71549;42.686;23.300;2023-11-21T07:38:07;12.90;;;11.50;;
43216;SDS011;71549;42.686;23.300;2023-11-21T07:40:08;13.00;;;11.70;;
43216;SDS011;71549;42.686;23.300;2023-11-21T07:42:08;12.52;;;11.23;;
43216;SDS011;71549;42.686;23.300;2023-11-21T07:44:09;14.30;;;11.32;;
43216;SDS011;71549;42.686;23.300;2023-11-21T07:46:10;13.35;;;11.93;;
43216;SDS011;71549;42.686;23.300;2023-11-21T07:48:13;12.63;;;11.30;;
43216;SDS011;71549;42.686;23.300;2023-11-21T07:50:13;13.52;;;11.88;;
43216;SDS011;71549;42.686;23.300;2023-11-21T07:52:14;13.43;;;12.18;;
43216;SDS011;71549;42.686;23.300;2023-11-21T07:54:16;14.48;;;11.90;;
43216;SDS011;71549;42.686;23.300;2023-11-21T07:56:16;13.40;;;11.27;;
43216;SDS011;71549;42.686;23.300;2023-11-21T07:58:18;14.25;;;12.68;;
43216;SDS011;71549;42.686;23.300;2023-11-21T08:00:18;13.52;;;12.15;;
43216;SDS011;71549;42.686;23.300;2023-11-21T08:02:21;13.52;;;12.13;;
43216;SDS011;71549;42.686;23.300;2023-11-21T08:04:21;13.77;;;12.35;;
43216;SDS011;71549;42.686;23.300;2023-11-21T08:06:23;12.73;;;11.52;;
43216;SDS011;71549;42.686;23.300;2023-11-21T08:08:24;12.75;;;11.32;;
43216;SDS011;71549;42.686;23.300;2023-11-21T08:10:24;13.23;;;11.48;;
43216;SDS011;71549;42.686;23.300;2023-11-21T08:12:25;13.77;;;12.30;;
43216;SDS011;71549;42.686;23.300;2023-11-21T08:14:27;12.73;;;11.63;;
43216;SDS011;71549;42.686;23.300;2023-11-21T08:16:28;14.38;;;12.07;;
43216;SDS011;71549;42.686;23.300;2023-11-21T08:18:28;12.20;;;10.90;;
43216;SDS011;71549;42.686;23.300;2023-11-21T08:20:29;12.48;;;11.18;;
43216;SDS011;71549;42.686;23.300;2023-11-21T08:22:30;11.15;;;10.07;;
43216;SDS011;71549;42.686;23.300;2023-11-21T08:24:30;12.63;;;11.32;;
43216;SDS011;71549;42.686;23.300;2023-11-21T08:26:31;12.63;;;11.40;;
43216;SDS011;71549;42.686;23.300;2023-11-21T08:28:31;13.25;;;11.93;;
43216;SDS011;71549;42.686;23.300;2023-11-21T08:30:32;11.65;;;10.50;;
43216;SDS011;71549;42.686;23.300;2023-11-21T08:32:33;13.20;;;11.73;;
43216;SDS011;71549;42.686;23.300;2023-11-21T08:34:33;12.95;;;11.65;;
43216;SDS011;71549;42.686;23.300;2023-11-21T08:36:34;12.52;;;11.23;;
43216;SDS011;71549;42.686;23.300;2023-11-21T08:38:35;13.07;;;11.65;;
43216;SDS011;71549;42.686;23.300;2023-11-21T08:40:38;12.63;;;11.32;;
43216;SDS011;71549;42.686;23.300;2023-11-21T08:42:38;12.88;;;11.57;;
43216;SDS011;71549;42.686;23.300;2023-11-21T08:44:39;13.68;;;11.40;;
43216;SDS011;71549;42.686;23.300;2023-11-21T08:46:40;13.65;;;12.27;;
43216;SDS011;71549;42.686;23.300;2023-11-21T08:48:42;13.15;;;11.77;;
43216;SDS011;71549;42.686;23.300;2023-11-21T08:50:43;13.90;;;12.55;;
43216;SDS011;71549;42.686;23.300;2023-11-21T08:52:44;12.27;;;11.05;;
43216;SDS011;71549;42.686;23.300;2023-11-21T08:54:48;12.80;;;11.48;;
43216;SDS011;71549;42.686;23.300;2023-11-21T08:56:55;12.52;;;11.32;;
43216;SDS011;71549;42.686;23.300;2023-11-21T08:58:58;11.98;;;10.52;;
43216;SDS011;71549;42.686;23.300;2023-11-21T09:01:00;12.38;;;10.95;;
43216;SDS011;71549;42.686;23.300;2023-11-21T09:03:01;12.07;;;10.88;;
43216;SDS011;71549;42.686;23.300;2023-11-21T09:05:04;12.90;;;11.55;;
43216;SDS011;71549;42.686;23.300;2023-11-21T09:07:05;12.50;;;11.23;;
43216;SDS011;71549;42.686;23.300;2023-11-21T09:09:06;13.35;;;12.05;;
43216;SDS011;71549;42.686;23.300;2023-11-21T09:11:08;13.02;;;11.73;;
43216;SDS011;71549;42.686;23.300;2023-11-21T09:13:08;12.90;;;11.60;;
43216;SDS011;71549;42.686;23.300;2023-11-21T09:15:10;12.52;;;11.32;;
43216;SDS011;71549;42.686;23.300;2023-11-21T09:17:11;12.77;;;11.43;;
43216;SDS011;71549;42.686;23.300;2023-11-21T09:19:12;13.65;;;12.43;;
43216;SDS011;71549;42.686;23.300;2023-11-21T09:21:14;12.48;;;11.23;;
43216;SDS011;71549;42.686;23.300;2023-11-21T09:23:14;12.18;;;11.07;;
43216;SDS011;71549;42.686;23.300;2023-11-21T09:25:16;11.70;;;10.57;;
43216;SDS011;71549;42.686;23.300;2023-11-21T09:27:18;13.25;;;11.88;;
43216;SDS011;71549;42.686;23.300;2023-11-21T09:29:19;12.70;;;11.25;;
43216;SDS011;71549;42.686;23.300;2023-11-21T09:31:19;12.85;;;11.43;;
43216;SDS011;71549;42.686;23.300;2023-11-21T09:33:22;12.73;;;11.43;;
43216;SDS011;71549;42.686;23.300;2023-11-21T09:35:25;13.88;;;12.40;;
43216;SDS011;71549;42.686;23.300;2023-11-21T09:37:25;13.93;;;11.68;;
43216;SDS011;71549;42.686;23.300;2023-11-21T09:39:27;13.50;;;12.00;;
43216;SDS011;71549;42.686;23.300;2023-11-21T09:41:42;11.57;;;10.48;;
43216;SDS011;71549;42.686;23.300;2023-11-21T09:43:46;12.85;;;11.55;;
43216;SDS011;71549;42.686;23.300;2023-11-21T09:45:54;13.13;;;11.73;;
43216;SDS011;71549;42.686;23.300;2023-11-21T09:47:59;12.30;;;10.98;;
43216;SDS011;71549;42.686;23.300;2023-11-21T09:50:01;12.52;;;11.23;;
43216;SDS011;71549;42.686;23.300;2023-11-21T09:52:02;12.85;;;11.10;;
43216;SDS011;71549;42.686;23.300;2023-11-21T09:54:04;12.73;;;11.43;;
43216;SDS011;71549;42.686;23.300;2023-11-21T09:56:09;12.77;;;11.52;;
43216;SDS011;71549;42.686;23.300;2023-11-21T09:58:10;13.02;;;11.63;;
43216;SDS011;71549;42.686;23.300;2023-11-21T10:00:14;12.93;;;11.63;;
43216;SDS011;71549;42.686;23.300;2023-11-21T10:02:22;12.55;;;11.35;;
43216;SDS011;71549;42.686;23.300;2023-11-21T10:04:26;12.73;;;11.43;;
43216;SDS011;71549;42.686;23.300;2023-11-21T10:06:28;12.60;;;11.35;;
43216;SDS011;71549;42.686;23.300;2023-11-21T10:08:30;11.93;;;10.82;;
43216;SDS011;71549;42.686;23.300;2023-11-21T10:10:32;12.55;;;11.25;;
43216;SDS011;71549;42.686;23.300;2023-11-21T10:12:33;12.20;;;11.10;;
43216;SDS011;71549;42.686;23.300;2023-11-21T10:14:36;12.02;;;10.82;;
43216;SDS011;71549;42.686;23.300;2023-11-21T10:16:41;11.70;;;10.60;;
43216;SDS011;71549;42.686;23.300;2023-11-21T10:18:44;11.75;;;10.35;;
43216;SDS011;71549;42.686;23.300;2023-11-21T10:20:46;12.35;;;11.05;;
43216;SDS011;71549;42.686;23.300;2023-11-21T10:22:51;12.70;;;11.43;;
43216;SDS011;71549;42.686;23.300;2023-11-21T10:24:52;12.32;;;11.02;;
43216;SDS011;71549;42.686;23.300;2023-11-21T10:26:53;12.88;;;11.60;;
43216;SDS011;71549;42.686;23.300;2023-11-21T10:28:57;13.43;;;12.13;;
43216;SDS011;71549;42.686;23.300;2023-11-21T10:31:06;12.05;;;10.88;;
43216;SDS011;71549;42.686;23.300;2023-11-21T10:33:07;13.32;;;11.90;;
43216;SDS011;71549;42.686;23.300;2023-11-21T10:35:08;12.77;;;11.55;;
43216;SDS011;71549;42.686;23.300;2023-11-21T10:37:12;17.05;;;11.60;;
43216;SDS011;71549;42.686;23.300;2023-11-21T10:39:19;11.18;;;10.10;;
43216;SDS011;71549;42.686;23.300;2023-11-21T10:41:23;12.23;;;11.02;;
43216;SDS011;71549;42.686;23.300;2023-11-21T10:43:25;11.85;;;10.75;;
43216;SDS011;71549;42.686;23.300;2023-11-21T10:45:27;12.02;;;10.88;;
43216;SDS011;71549;42.686;23.300;2023-11-21T10:47:30;11.98;;;10.88;;
43216;SDS011;71549;42.686;23.300;2023-11-21T10:49:31;12.90;;;11.60;;
43216;SDS011;71549;42.686;23.300;2023-11-21T10:51:31;12.65;;;11.50;;
43216;SDS011;71549;42.686;23.300;2023-11-21T10:53:33;12.48;;;11.27;;
43216;SDS011;71549;42.686;23.300;2023-11-21T10:55:33;11.82;;;10.63;;
43216;SDS011;71549;42.686;23.300;2023-11-21T10:57:34;12.98;;;11.43;;
43216;SDS011;71549;42.686;23.300;2023-11-21T10:59:35;11.88;;;10.70;;
43216;SDS011;71549;42.686;23.300;2023-11-21T11:01:38;12.10;;;10.95;;
43216;SDS011;71549;42.686;23.300;2023-11-21T11:03:39;12.15;;;10.93;;
43216;SDS011;71549;42.686;23.300;2023-11-21T11:05:41;13.48;;;11.43;;
43216;SDS011;71549;42.686;23.300;2023-11-21T11:07:52;12.32;;;11.13;;
43216;SDS011;71549;42.686;23.300;2023-11-21T11:10:03;12.77;;;11.57;;
43216;SDS011;71549;42.686;23.300;2023-11-21T11:12:04;12.32;;;11.18;;
43216;SDS011;71549;42.686;23.300;2023-11-21T11:14:07;10.85;;;9.88;;
43216;SDS011;71549;42.686;23.300;2023-11-21T11:16:10;12.57;;;11.27;;
43216;SDS011;71549;42.686;23.300;2023-11-21T11:18:12;11.52;;;10.43;;
43216;SDS011;71549;42.686;23.300;2023-11-21T11:20:14;11.93;;;10.73;;
43216;SDS011;71549;42.686;23.300;2023-11-21T11:27:58;12.50;;;11.32;;
43216;SDS011;71549;42.686;23.300;2023-11-21T11:30:26;11.35;;;10.25;;
43216;SDS011;71549;42.686;23.300;2023-11-21T11:35:46;12.43;;;11.23;;
43216;SDS011;71549;42.686;23.300;2023-11-21T11:37:24;13.23;;;11.38;;
43216;SDS011;71549;42.686;23.300;2023-11-21T11:39:31;12.40;;;11.20;;
43216;SDS011;71549;42.686;23.300;2023-11-21T11:41:42;11.52;;;10.43;;
43216;SDS011;71549;42.686;23.300;2023-11-21T11:43:44;11.70;;;10.53;;
43216;SDS011;71549;42.686;23.300;2023-11-21T11:45:44;12.32;;;11.10;;
43216;SDS011;71549;42.686;23.300;2023-11-21T11:47:48;11.32;;;10.23;;
43216;SDS011;71549;42.686;23.300;2023-11-21T11:52:36;11.70;;;10.60;;
43216;SDS011;71549;42.686;23.300;2023-11-21T11:54:43;12.65;;;11.50;;
43216;SDS011;71549;42.686;23.300;2023-11-21T11:56:44;12.55;;;11.25;;